Aviation Digital Data Service (ADDS)

Output produced by METARs form (2043 UTC 21 September 2021)
found at http://www.aviationweather.gov/metar/data/
 
TAF MWCB 211700Z 2118/2218 08010KT 9999 FEW018 
     BECMG 2200/2201 03005KT FEW018 
     PROB30 
     TEMPO 2207/2213 06005KT9000 SHRA SCT016 
     BECMG 2214/2215 VRB03KT 9999 FEW018